createdAt,value
2023-08-06T00:00:23.801Z,6.38
2023-08-06T00:01:06.318Z,6.05
2023-08-06T00:01:49.820Z,6.03
2023-08-06T00:02:32.445Z,5.40
2023-08-06T00:03:15.145Z,5.85
2023-08-06T00:04:00.455Z,5.63
2023-08-06T00:04:42.908Z,7.85
2023-08-06T00:05:25.435Z,5.22
2023-08-06T00:06:08.996Z,7.13
2023-08-06T00:06:51.499Z,6.30
2023-08-06T00:07:33.987Z,6.03
2023-08-06T00:08:17.456Z,6.95
2023-08-06T00:09:00.331Z,5.13
2023-08-06T00:09:42.808Z,6.10
2023-08-06T00:10:25.306Z,7.63
2023-08-06T00:11:09.085Z,7.97
2023-08-06T00:11:51.742Z,6.55
2023-08-06T00:12:35.742Z,6.68
2023-08-06T00:13:19.201Z,5.82
2023-08-06T00:14:01.671Z,7.72
2023-08-06T00:14:44.783Z,8.18
2023-08-06T00:15:28.399Z,7.63
2023-08-06T00:16:11.925Z,6.90
2023-08-06T00:16:54.643Z,8.77
2023-08-06T00:17:38.223Z,6.80
2023-08-06T00:18:20.759Z,6.32
2023-08-06T00:19:04.524Z,6.35
2023-08-06T00:19:48.274Z,7.47
2023-08-06T00:20:30.759Z,7.35
2023-08-06T00:21:13.552Z,6.78
2023-08-06T00:21:57.112Z,8.63
2023-08-06T00:22:40.088Z,6.18
2023-08-06T00:23:23.372Z,5.88
2023-08-06T00:24:07.019Z,9.07
2023-08-06T00:24:49.536Z,7.78
2023-08-06T00:25:32.952Z,7.60
2023-08-06T00:26:15.488Z,6.57
2023-08-06T00:26:57.994Z,6.30
2023-08-06T00:27:42.791Z,10.32
2023-08-06T00:28:25.217Z,7.68
2023-08-06T00:29:07.664Z,6.88
2023-08-06T00:29:51.095Z,7.10
2023-08-06T00:30:33.575Z,6.70
2023-08-06T00:31:17.048Z,8.13
2023-08-06T00:31:59.608Z,6.13
2023-08-06T00:32:42.079Z,9.68
2023-08-06T00:33:25.781Z,7.47
2023-08-06T00:34:09.955Z,8.40
2023-08-06T00:34:52.434Z,8.55
2023-08-06T00:35:34.922Z,8.30
2023-08-06T00:36:18.369Z,6.97
2023-08-06T00:37:00.793Z,7.95
2023-08-06T00:37:43.290Z,8.07
2023-08-06T00:38:26.798Z,6.55
2023-08-06T00:39:09.308Z,6.97
2023-08-06T00:39:51.775Z,7.65
2023-08-06T00:40:35.220Z,9.40
2023-08-06T00:41:17.687Z,7.82
2023-08-06T00:42:00.117Z,8.02
2023-08-06T00:42:46.025Z,7.05
2023-08-06T00:43:28.504Z,8.38
2023-08-06T00:44:16.102Z,6.88
2023-08-06T00:44:59.558Z,6.63
2023-08-06T00:45:42.050Z,6.25
2023-08-06T00:46:24.672Z,9.25
2023-08-06T00:47:09.270Z,9.82
2023-08-06T00:47:51.786Z,11.18
2023-08-06T00:48:34.806Z,8.95
2023-08-06T00:49:19.266Z,7.72
2023-08-06T00:50:01.721Z,7.38
2023-08-06T00:50:44.318Z,7.35
2023-08-06T00:51:28.127Z,7.15
2023-08-06T00:52:10.714Z,8.43
2023-08-06T00:52:53.338Z,8.75
2023-08-06T00:53:36.796Z,8.52
2023-08-06T00:54:19.369Z,7.15
2023-08-06T00:55:01.821Z,6.25
2023-08-06T00:55:47.499Z,6.43
2023-08-06T00:56:30.544Z,9.73
2023-08-06T00:57:13.422Z,7.05
2023-08-06T00:57:58.611Z,6.47
2023-08-06T00:58:41.307Z,8.90
2023-08-06T00:59:24.560Z,7.28
2023-08-06T01:00:09.553Z,9.93
2023-08-06T01:00:52.032Z,5.03
2023-08-06T01:01:34.978Z,5.65
2023-08-06T01:02:18.424Z,6.32
2023-08-06T01:03:01.374Z,4.82
2023-08-06T01:03:46.766Z,6.47
2023-08-06T01:04:30.231Z,6.40
2023-08-06T01:05:12.698Z,5.65
2023-08-06T01:05:55.251Z,6.18
2023-08-06T01:06:48.004Z,6.13
2023-08-06T01:07:39.310Z,5.80
2023-08-06T01:08:33.137Z,6.40
2023-08-06T01:09:25.270Z,7.15
2023-08-06T01:10:24.610Z,7.20
2023-08-06T01:11:17.080Z,6.97
2023-08-06T01:12:07.708Z,6.88
2023-08-06T01:12:57.055Z,6.63
2023-08-06T01:13:47.864Z,4.50
2023-08-06T01:14:34.938Z,8.23
2023-08-06T01:15:20.958Z,7.53
2023-08-06T01:16:06.637Z,5.93
2023-08-06T01:16:50.208Z,7.55
2023-08-06T01:17:32.871Z,7.65
2023-08-06T01:18:15.858Z,5.57
2023-08-06T01:19:01.148Z,8.15
2023-08-06T01:19:43.578Z,6.28
2023-08-06T01:20:30.951Z,7.28
2023-08-06T01:21:15.460Z,4.38
2023-08-06T01:21:57.936Z,7.45
2023-08-06T01:22:40.441Z,5.72
2023-08-06T01:23:23.990Z,4.28
2023-08-06T01:24:06.577Z,7.18
2023-08-06T01:24:51.058Z,7.60
2023-08-06T01:25:38.472Z,5.80
2023-08-06T01:26:26.694Z,7.53
2023-08-06T01:27:15.334Z,7.10
2023-08-06T01:28:01.306Z,10.82
2023-08-06T01:28:54.581Z,6.82
2023-08-06T01:29:44.992Z,7.72
2023-08-06T01:30:29.566Z,7.10
2023-08-06T01:31:16.858Z,8.07
2023-08-06T01:31:59.999Z,6.65
2023-08-06T01:32:47.233Z,6.57
2023-08-06T01:33:30.605Z,6.72
2023-08-06T01:34:18.145Z,6.03
2023-08-06T01:35:03.257Z,7.00
2023-08-06T01:35:48.070Z,6.22
2023-08-06T01:36:30.789Z,5.93
2023-08-06T01:37:15.069Z,6.57
2023-08-06T01:37:57.636Z,6.35
2023-08-06T01:38:40.069Z,8.07
2023-08-06T01:39:23.718Z,8.52
2023-08-06T01:40:08.692Z,7.60
2023-08-06T01:40:51.128Z,5.72
2023-08-06T01:41:34.584Z,6.13
2023-08-06T01:42:17.029Z,6.82
2023-08-06T01:42:59.445Z,6.30
2023-08-06T01:43:42.871Z,4.78
2023-08-06T01:44:25.332Z,6.25
2023-08-06T01:45:08.628Z,6.72
2023-08-06T01:45:52.120Z,7.22
2023-08-06T01:46:34.663Z,5.43
2023-08-06T01:47:21.141Z,6.07
2023-08-06T01:48:05.113Z,6.85
2023-08-06T01:48:47.598Z,6.97
2023-08-06T01:49:30.360Z,7.80
2023-08-06T01:50:13.809Z,9.30
2023-08-06T01:50:57.591Z,5.70
2023-08-06T01:51:40.042Z,7.00
2023-08-06T01:52:24.284Z,6.07
2023-08-06T01:53:06.728Z,6.05
2023-08-06T01:53:49.157Z,6.65
2023-08-06T01:54:32.579Z,9.25
2023-08-06T01:55:15.205Z,6.78
2023-08-06T01:55:57.680Z,7.07
2023-08-06T01:56:41.129Z,8.00
2023-08-06T01:57:23.769Z,6.57
2023-08-06T01:58:06.200Z,6.57
2023-08-06T01:58:49.624Z,8.30
2023-08-06T01:59:32.179Z,8.18
2023-08-06T02:00:14.874Z,6.18
2023-08-06T02:00:58.408Z,6.97
2023-08-06T02:01:40.904Z,5.38
2023-08-06T02:02:24.506Z,5.90
2023-08-06T02:03:07.940Z,6.45
2023-08-06T02:03:50.433Z,6.75
2023-08-06T02:04:32.894Z,5.25
2023-08-06T02:05:16.377Z,6.60
2023-08-06T02:06:00.176Z,7.28
2023-08-06T02:06:42.611Z,6.65
2023-08-06T02:07:26.119Z,6.65
2023-08-06T02:08:08.593Z,6.20
2023-08-06T02:08:51.113Z,6.20
2023-08-06T02:09:36.427Z,6.57
2023-08-06T02:10:18.954Z,5.90
2023-08-06T02:11:01.878Z,7.07
2023-08-06T02:11:45.338Z,5.95
2023-08-06T02:12:27.783Z,9.40
2023-08-06T02:13:10.261Z,6.07
2023-08-06T02:13:53.696Z,7.05
2023-08-06T02:14:36.296Z,7.82
2023-08-06T02:15:18.756Z,5.82
2023-08-06T02:16:02.223Z,5.93
2023-08-06T02:16:44.734Z,7.53
2023-08-06T02:17:27.217Z,7.95
2023-08-06T02:18:10.662Z,6.75
2023-08-06T02:18:53.107Z,6.53
2023-08-06T02:19:35.622Z,5.68
2023-08-06T02:20:19.052Z,7.72
2023-08-06T02:21:02.926Z,5.63
2023-08-06T02:21:45.350Z,6.82
2023-08-06T02:22:28.760Z,6.28
2023-08-06T02:23:12.130Z,6.20
2023-08-06T02:23:54.576Z,6.95
2023-08-06T02:24:38.020Z,7.03
2023-08-06T02:25:20.471Z,8.65
2023-08-06T02:26:03.980Z,8.52
2023-08-06T02:26:48.941Z,6.95
2023-08-06T02:27:31.418Z,5.90
2023-08-06T02:28:13.877Z,6.28
2023-08-06T02:28:57.256Z,8.55
2023-08-06T02:29:42.133Z,7.28
2023-08-06T02:30:24.606Z,7.43
2023-08-06T02:31:08.698Z,8.65
2023-08-06T02:31:51.550Z,6.70
2023-08-06T02:32:36.754Z,7.35
2023-08-06T02:33:20.217Z,6.13
2023-08-06T02:34:02.631Z,6.78
2023-08-06T02:34:46.234Z,7.60
2023-08-06T02:35:28.653Z,6.18
2023-08-06T02:36:12.454Z,7.38
2023-08-06T02:36:55.898Z,8.27
2023-08-06T02:37:38.480Z,6.18
2023-08-06T02:38:21.866Z,5.93
2023-08-06T02:39:05.404Z,6.13
2023-08-06T02:39:47.900Z,5.43
2023-08-06T02:40:30.350Z,6.15
2023-08-06T02:41:13.845Z,6.72
2023-08-06T02:41:56.582Z,7.50
2023-08-06T02:42:39.452Z,5.85
2023-08-06T02:43:22.950Z,5.88
2023-08-06T02:44:05.607Z,9.50
2023-08-06T02:44:48.157Z,6.55
2023-08-06T02:45:31.910Z,8.43
2023-08-06T02:46:14.431Z,7.57
2023-08-06T02:46:56.895Z,8.20
2023-08-06T02:47:40.362Z,7.88
2023-08-06T02:48:22.963Z,5.68
2023-08-06T02:49:05.422Z,6.22
2023-08-06T02:49:49.002Z,7.50
2023-08-06T02:50:31.452Z,5.85
2023-08-06T02:51:15.235Z,6.25
2023-08-06T02:51:58.666Z,9.38
2023-08-06T02:52:41.245Z,7.20
2023-08-06T02:53:24.564Z,6.72
2023-08-06T02:54:07.978Z,6.30
2023-08-06T02:54:50.453Z,7.70
2023-08-06T02:55:32.899Z,8.63
2023-08-06T02:56:15.355Z,7.45
2023-08-06T02:56:58.773Z,8.07
2023-08-06T02:57:41.248Z,8.18
2023-08-06T02:58:23.777Z,8.23
2023-08-06T02:59:07.498Z,7.78
2023-08-06T02:59:49.994Z,6.47
2023-08-06T03:00:32.475Z,6.15
2023-08-06T03:01:15.991Z,5.28
2023-08-06T03:01:58.602Z,6.05
2023-08-06T03:02:41.069Z,6.72
2023-08-06T03:03:24.599Z,7.20
2023-08-06T03:04:07.254Z,6.78
2023-08-06T03:04:51.585Z,7.50
2023-08-06T03:05:34.064Z,6.65
2023-08-06T03:06:17.871Z,7.35
2023-08-06T03:07:01.391Z,6.68
2023-08-06T03:07:43.838Z,10.23
2023-08-06T03:08:26.953Z,7.03
2023-08-06T03:09:10.400Z,7.07
2023-08-06T03:09:52.860Z,7.53
2023-08-06T03:10:35.953Z,7.47
2023-08-06T03:11:19.400Z,5.97
2023-08-06T03:12:01.873Z,7.78
2023-08-06T03:12:44.308Z,7.40
2023-08-06T03:13:29.081Z,7.63
2023-08-06T03:14:11.528Z,6.60
2023-08-06T03:14:53.986Z,6.85
2023-08-06T03:15:36.445Z,6.85
2023-08-06T03:16:19.908Z,6.45
2023-08-06T03:17:02.420Z,6.97
2023-08-06T03:17:45.556Z,7.35
2023-08-06T03:18:29.146Z,6.00
2023-08-06T03:19:11.573Z,6.20
2023-08-06T03:19:54.293Z,5.85
2023-08-06T03:20:37.751Z,6.82
2023-08-06T03:21:21.599Z,5.30
2023-08-06T03:22:04.178Z,7.47
2023-08-06T03:22:47.594Z,7.55
2023-08-06T03:23:30.083Z,7.10
2023-08-06T03:24:12.493Z,7.45
2023-08-06T03:24:56.739Z,5.45
2023-08-06T03:25:39.245Z,5.07
2023-08-06T03:26:21.685Z,5.63
2023-08-06T03:27:05.372Z,6.97
2023-08-06T03:27:47.787Z,6.40
2023-08-06T03:28:30.311Z,6.25
2023-08-06T03:29:13.832Z,8.43
2023-08-06T03:29:56.621Z,6.47
2023-08-06T03:30:39.227Z,5.82
2023-08-06T03:31:22.668Z,7.95
2023-08-06T03:32:05.630Z,5.90
2023-08-06T03:32:48.348Z,5.57
2023-08-06T03:33:32.321Z,6.18
2023-08-06T03:34:14.798Z,5.40
2023-08-06T03:34:57.217Z,5.72
2023-08-06T03:35:40.644Z,5.72
2023-08-06T03:36:25.463Z,6.05
2023-08-06T03:37:07.892Z,7.30
2023-08-06T03:37:50.954Z,5.32
2023-08-06T03:38:34.425Z,6.75
2023-08-06T03:39:17.027Z,6.47
2023-08-06T03:40:00.331Z,5.40
2023-08-06T03:40:44.421Z,5.57
2023-08-06T03:41:26.946Z,6.55
2023-08-06T03:42:09.388Z,6.18
2023-08-06T03:42:52.851Z,6.47
2023-08-06T03:43:35.350Z,5.82
2023-08-06T03:44:17.789Z,7.32
2023-08-06T03:45:04.943Z,6.65
2023-08-06T03:45:47.413Z,6.70
2023-08-06T03:46:29.890Z,8.00
2023-08-06T03:47:13.361Z,5.20
2023-08-06T03:47:55.853Z,4.95
2023-08-06T03:48:38.318Z,6.32
2023-08-06T03:49:21.772Z,4.25
2023-08-06T03:50:04.906Z,5.72
2023-08-06T03:50:47.348Z,5.13
2023-08-06T03:51:32.129Z,5.60
2023-08-06T03:52:14.597Z,4.40
2023-08-06T03:52:57.053Z,5.70
2023-08-06T03:53:40.481Z,5.10
2023-08-06T03:54:22.913Z,5.32
2023-08-06T03:55:06.596Z,4.50
2023-08-06T03:55:50.007Z,4.40
2023-08-06T03:56:32.442Z,4.53
2023-08-06T03:57:14.894Z,5.47
2023-08-06T03:57:58.329Z,4.72
2023-08-06T03:58:40.772Z,3.97
2023-08-06T03:59:23.222Z,4.70
2023-08-06T04:00:08.221Z,5.07
2023-08-06T04:00:58.367Z,4.32
2023-08-06T04:01:42.206Z,3.47
2023-08-06T04:02:24.622Z,5.03
2023-08-06T04:03:07.124Z,5.05
2023-08-06T04:03:49.712Z,4.15
2023-08-06T04:04:33.119Z,5.88
2023-08-06T04:05:16.529Z,4.65
2023-08-06T04:05:59.091Z,4.55
2023-08-06T04:06:43.870Z,4.15
2023-08-06T04:07:26.349Z,4.95
2023-08-06T04:08:08.798Z,5.05
2023-08-06T04:08:52.266Z,4.72
2023-08-06T04:09:34.745Z,4.50
2023-08-06T04:10:17.231Z,6.07
2023-08-06T04:10:59.719Z,5.65
2023-08-06T04:11:43.145Z,6.22
2023-08-06T04:12:25.914Z,4.28
2023-08-06T04:13:08.339Z,4.57
2023-08-06T04:13:51.778Z,4.57
2023-08-06T04:14:34.286Z,5.65
2023-08-06T04:15:16.903Z,4.13
2023-08-06T04:16:04.135Z,4.05
2023-08-06T04:16:46.611Z,4.82
2023-08-06T04:17:29.115Z,4.90
2023-08-06T04:18:12.689Z,5.03
2023-08-06T04:18:56.661Z,4.40
2023-08-06T04:19:39.085Z,4.43
2023-08-06T04:20:22.507Z,5.65
2023-08-06T04:21:05.082Z,5.10
2023-08-06T04:21:48.856Z,4.53
2023-08-06T04:22:32.445Z,3.97
2023-08-06T04:23:15.354Z,3.83
2023-08-06T04:23:58.992Z,3.88
2023-08-06T04:24:41.420Z,5.75
2023-08-06T04:25:25.439Z,4.07
2023-08-06T04:26:09.049Z,4.28
2023-08-06T04:26:51.473Z,5.13
2023-08-06T04:27:33.943Z,4.60
2023-08-06T04:28:17.385Z,5.80
2023-08-06T04:28:59.845Z,5.43
2023-08-06T04:29:42.536Z,4.80
2023-08-06T04:30:26.852Z,5.97
2023-08-06T04:31:09.394Z,5.15
2023-08-06T04:31:52.103Z,4.53
2023-08-06T04:32:35.824Z,4.07
2023-08-06T04:33:18.262Z,5.93
2023-08-06T04:34:02.840Z,5.75
2023-08-06T04:34:45.318Z,5.30
2023-08-06T04:35:28.619Z,4.47
2023-08-06T04:36:12.074Z,5.82
2023-08-06T04:36:55.964Z,6.38
2023-08-06T04:37:38.419Z,5.57
2023-08-06T04:38:21.833Z,7.22
2023-08-06T04:39:04.341Z,6.25
2023-08-06T04:39:51.102Z,5.40
2023-08-06T04:40:36.764Z,4.40
2023-08-06T04:41:19.282Z,6.15
2023-08-06T04:42:01.746Z,4.50
2023-08-06T04:42:45.171Z,4.70
2023-08-06T04:43:27.601Z,5.80
2023-08-06T04:44:10.035Z,4.55
2023-08-06T04:44:53.572Z,4.75
2023-08-06T04:45:36.011Z,5.55
2023-08-06T04:46:19.293Z,5.78
2023-08-06T04:47:02.757Z,4.35
2023-08-06T04:47:45.244Z,4.28
2023-08-06T04:48:27.748Z,3.95
2023-08-06T04:49:11.323Z,5.28
2023-08-06T04:49:54.128Z,5.07
2023-08-06T04:50:36.557Z,5.35
2023-08-06T04:51:20.037Z,5.18
2023-08-06T04:52:04.260Z,5.15
2023-08-06T04:52:46.762Z,5.05
2023-08-06T04:53:30.179Z,5.70
2023-08-06T04:54:12.627Z,5.43
2023-08-06T04:54:55.331Z,5.03
2023-08-06T04:55:38.780Z,6.35
2023-08-06T04:56:22.173Z,5.72
2023-08-06T04:57:05.207Z,4.45
2023-08-06T04:57:48.668Z,6.68
2023-08-06T04:58:31.123Z,6.75
2023-08-06T04:59:13.571Z,7.18
2023-08-06T04:59:56.988Z,5.07
2023-08-06T05:00:39.580Z,6.47
2023-08-06T05:01:22.046Z,4.57
2023-08-06T05:02:05.892Z,5.88
2023-08-06T05:02:48.418Z,5.90
2023-08-06T05:03:30.925Z,4.82
2023-08-06T05:04:14.434Z,5.22
2023-08-06T05:04:57.213Z,3.58
2023-08-06T05:05:41.914Z,4.60
2023-08-06T05:06:26.144Z,4.00
2023-08-06T05:07:10.022Z,4.45
2023-08-06T05:07:53.418Z,4.22
2023-08-06T05:08:35.872Z,4.00
2023-08-06T05:09:18.317Z,5.95
2023-08-06T05:10:01.731Z,4.25
2023-08-06T05:10:45.053Z,5.18
2023-08-06T05:11:27.522Z,5.00
2023-08-06T05:12:11.209Z,3.60
2023-08-06T05:12:53.699Z,2.88
2023-08-06T05:13:36.167Z,4.90
2023-08-06T05:14:19.622Z,3.35
2023-08-06T05:15:02.073Z,3.75
2023-08-06T05:15:46.359Z,3.88
2023-08-06T05:16:30.003Z,4.60
2023-08-06T05:17:12.425Z,3.67
2023-08-06T05:17:54.926Z,4.10
2023-08-06T05:18:38.860Z,5.07
2023-08-06T05:19:21.392Z,5.45
2023-08-06T05:20:04.432Z,4.70
2023-08-06T05:20:48.102Z,4.28
2023-08-06T05:21:30.639Z,4.05
2023-08-06T05:22:14.498Z,4.90
2023-08-06T05:22:57.930Z,7.20
2023-08-06T05:23:40.443Z,4.78
2023-08-06T05:24:23.205Z,5.10
2023-08-06T05:25:07.687Z,4.13
2023-08-06T05:25:50.261Z,5.20
2023-08-06T05:26:34.468Z,5.15
2023-08-06T05:27:16.919Z,4.82
2023-08-06T05:27:59.445Z,3.85
2023-08-06T05:28:43.326Z,3.97
2023-08-06T05:29:25.867Z,4.05
2023-08-06T05:30:09.489Z,5.57
2023-08-06T05:30:52.986Z,3.72
2023-08-06T05:31:35.463Z,4.35
2023-08-06T05:32:17.941Z,4.25
2023-08-06T05:33:01.450Z,4.65
2023-08-06T05:33:43.930Z,3.58
2023-08-06T05:34:26.407Z,5.13
2023-08-06T05:35:10.230Z,3.97
2023-08-06T05:35:52.685Z,3.85
2023-08-06T05:36:35.212Z,3.58
2023-08-06T05:37:20.011Z,3.72
2023-08-06T05:38:02.739Z,4.13
2023-08-06T05:38:45.169Z,4.70
2023-08-06T05:39:28.555Z,5.95
2023-08-06T05:40:11.387Z,4.15
2023-08-06T05:40:54.000Z,4.22
2023-08-06T05:41:37.434Z,4.90
2023-08-06T05:42:20.747Z,5.03
2023-08-06T05:43:03.308Z,6.40
2023-08-06T05:43:47.038Z,5.38
2023-08-06T05:44:29.458Z,5.15
2023-08-06T05:45:12.119Z,5.55
2023-08-06T05:45:55.589Z,4.47
2023-08-06T05:46:38.024Z,4.45
2023-08-06T05:47:20.826Z,4.00
2023-08-06T05:48:04.404Z,5.75
2023-08-06T05:48:46.845Z,4.65
2023-08-06T05:49:29.249Z,4.50
2023-08-06T05:50:12.751Z,5.43
2023-08-06T05:50:55.166Z,4.82
2023-08-06T05:51:38.221Z,5.22
2023-08-06T05:52:23.186Z,5.45
2023-08-06T05:53:05.701Z,4.35
2023-08-06T05:53:50.394Z,4.35
2023-08-06T05:54:33.835Z,4.97
2023-08-06T05:55:16.423Z,4.70
2023-08-06T05:55:58.928Z,4.15
2023-08-06T05:56:42.414Z,4.22
2023-08-06T05:57:25.680Z,6.10
2023-08-06T05:58:08.125Z,4.28
2023-08-06T05:58:54.036Z,3.83
2023-08-06T05:59:36.480Z,5.18
2023-08-06T06:00:19.690Z,4.70
2023-08-06T06:01:03.114Z,5.35
2023-08-06T06:01:45.578Z,4.72
2023-08-06T06:02:29.004Z,5.10
2023-08-06T06:03:12.492Z,5.10
2023-08-06T06:03:55.047Z,4.80
2023-08-06T06:04:37.975Z,5.97
2023-08-06T06:05:21.389Z,10.63
2023-08-06T06:06:03.907Z,4.72
2023-08-06T06:06:46.388Z,5.13
2023-08-06T06:07:31.032Z,4.60
2023-08-06T06:08:14.452Z,4.78
2023-08-06T06:08:57.079Z,4.90
2023-08-06T06:09:41.408Z,5.53
2023-08-06T06:10:23.895Z,4.63
2023-08-06T06:11:07.337Z,5.45
2023-08-06T06:11:51.397Z,4.50
2023-08-06T06:12:34.303Z,5.45
2023-08-06T06:13:17.772Z,4.88
2023-08-06T06:14:00.236Z,5.03
2023-08-06T06:14:42.684Z,4.22
2023-08-06T06:15:26.212Z,4.22
2023-08-06T06:16:08.695Z,5.50
2023-08-06T06:16:51.283Z,5.25
2023-08-06T06:17:35.593Z,4.03
2023-08-06T06:18:18.125Z,4.15
2023-08-06T06:19:01.536Z,5.53
2023-08-06T06:19:43.977Z,4.72
2023-08-06T06:20:26.384Z,5.15
2023-08-06T06:21:10.168Z,4.65
2023-08-06T06:21:53.165Z,3.78
2023-08-06T06:22:37.315Z,5.32
2023-08-06T06:23:20.780Z,4.40
2023-08-06T06:24:03.888Z,5.40
2023-08-06T06:24:46.391Z,3.85
2023-08-06T06:25:29.836Z,4.18
2023-08-06T06:26:12.602Z,4.97
2023-08-06T06:26:55.045Z,5.35
2023-08-06T06:27:39.352Z,4.88
2023-08-06T06:28:21.878Z,3.90
2023-08-06T06:29:06.048Z,5.70
2023-08-06T06:29:50.809Z,4.75
2023-08-06T06:30:33.227Z,6.45
2023-08-06T06:31:15.687Z,5.13
2023-08-06T06:31:59.167Z,6.03
2023-08-06T06:32:41.991Z,4.55
2023-08-06T06:33:24.478Z,4.80
2023-08-06T06:34:07.929Z,3.72
2023-08-06T06:34:50.444Z,5.20
2023-08-06T06:35:32.867Z,4.80
2023-08-06T06:36:16.348Z,4.40
2023-08-06T06:36:58.842Z,4.07
2023-08-06T06:37:42.732Z,4.82
2023-08-06T06:38:26.210Z,5.18
2023-08-06T06:39:09.444Z,4.43
2023-08-06T06:39:51.912Z,4.80
2023-08-06T06:40:35.356Z,6.25
2023-08-06T06:41:17.778Z,6.10
2023-08-06T06:42:00.237Z,5.03
2023-08-06T06:42:44.535Z,3.95
2023-08-06T06:43:27.770Z,3.90
2023-08-06T06:44:10.172Z,6.15
2023-08-06T06:44:53.664Z,5.38
2023-08-06T06:45:36.191Z,4.80
2023-08-06T06:46:19.642Z,6.25
2023-08-06T06:47:02.096Z,5.03
2023-08-06T06:47:45.803Z,4.00
2023-08-06T06:48:29.477Z,4.45
2023-08-06T06:49:11.950Z,3.88
2023-08-06T06:49:55.489Z,3.13
2023-08-06T06:50:37.921Z,6.70
2023-08-06T06:51:20.359Z,3.50
2023-08-06T06:52:03.879Z,5.03
2023-08-06T06:52:47.873Z,4.80
2023-08-06T06:53:30.408Z,4.97
2023-08-06T06:54:13.967Z,5.82
2023-08-06T06:54:56.580Z,3.90
2023-08-06T06:55:38.992Z,4.88
2023-08-06T06:56:22.397Z,4.90
2023-08-06T06:57:05.700Z,4.13
2023-08-06T06:57:49.015Z,4.20
2023-08-06T06:58:32.473Z,4.20
2023-08-06T06:59:14.971Z,3.95
2023-08-06T06:59:58.436Z,4.28
2023-08-06T07:00:40.917Z,4.45
2023-08-06T07:01:23.421Z,5.97
2023-08-06T07:02:07.627Z,5.15
2023-08-06T07:02:50.127Z,4.57
2023-08-06T07:03:32.575Z,4.47
2023-08-06T07:04:16.012Z,3.35
2023-08-06T07:04:58.444Z,6.68
2023-08-06T07:05:40.910Z,4.97
2023-08-06T07:06:24.340Z,4.28
2023-08-06T07:07:06.868Z,3.55
2023-08-06T07:07:51.476Z,3.70
2023-08-06T07:08:34.926Z,3.22
2023-08-06T07:09:17.351Z,4.72
2023-08-06T07:09:59.747Z,3.80
2023-08-06T07:10:44.073Z,4.82
2023-08-06T07:11:26.510Z,4.63
2023-08-06T07:12:09.492Z,4.70
2023-08-06T07:12:52.927Z,5.63
2023-08-06T07:13:35.857Z,3.92
2023-08-06T07:14:18.937Z,5.88
2023-08-06T07:15:02.396Z,4.57
2023-08-06T07:15:44.874Z,5.30
2023-08-06T07:16:27.501Z,4.95
2023-08-06T07:17:10.998Z,4.07
2023-08-06T07:17:53.760Z,3.97
2023-08-06T07:18:36.303Z,3.83
2023-08-06T07:19:19.757Z,4.22
2023-08-06T07:20:02.218Z,4.45
2023-08-06T07:20:49.900Z,5.18
2023-08-06T07:21:33.760Z,4.97
2023-08-06T07:22:16.225Z,4.22
2023-08-06T07:23:00.217Z,4.45
2023-08-06T07:23:43.621Z,4.38
2023-08-06T07:24:26.076Z,4.13
2023-08-06T07:25:08.971Z,3.97
2023-08-06T07:25:52.478Z,3.72
2023-08-06T07:26:35.004Z,6.55
2023-08-06T07:27:17.487Z,3.55
2023-08-06T07:28:04.105Z,5.78
2023-08-06T07:28:46.626Z,3.85
2023-08-06T07:29:29.089Z,3.40
2023-08-06T07:30:13.380Z,5.32
2023-08-06T07:30:55.840Z,3.58
2023-08-06T07:31:38.382Z,3.28
2023-08-06T07:32:21.905Z,3.92
2023-08-06T07:33:05.393Z,3.13
2023-08-06T07:33:47.835Z,3.65
2023-08-06T07:34:31.259Z,3.42
2023-08-06T07:35:15.590Z,4.65
2023-08-06T07:35:58.114Z,3.97
2023-08-06T07:36:41.938Z,2.92
2023-08-06T07:37:24.459Z,4.28
2023-08-06T07:38:08.350Z,4.10
2023-08-06T07:38:56.736Z,4.35
2023-08-06T07:39:40.481Z,3.38
2023-08-06T07:40:22.991Z,3.30
2023-08-06T07:41:06.561Z,3.28
2023-08-06T07:41:49.040Z,3.17
2023-08-06T07:42:31.460Z,3.30
2023-08-06T07:43:15.715Z,4.03
2023-08-06T07:43:58.132Z,6.57
2023-08-06T07:44:40.593Z,3.35
2023-08-06T07:45:24.848Z,5.15
2023-08-06T07:46:07.345Z,3.15
2023-08-06T07:46:49.879Z,4.05
2023-08-06T07:47:33.340Z,4.18
2023-08-06T07:48:15.899Z,3.50
2023-08-06T07:48:58.304Z,3.85
2023-08-06T07:49:44.154Z,4.32
2023-08-06T07:50:26.787Z,4.43
2023-08-06T07:51:09.330Z,5.05
2023-08-06T07:51:54.215Z,3.28
2023-08-06T07:52:37.025Z,3.30
2023-08-06T07:53:21.328Z,3.28
2023-08-06T07:54:04.776Z,5.00
2023-08-06T07:54:47.256Z,3.97
2023-08-06T07:55:29.723Z,3.25
2023-08-06T07:56:13.129Z,3.33
2023-08-06T07:56:55.578Z,4.22
2023-08-06T07:57:39.168Z,3.10
2023-08-06T07:58:23.685Z,5.65
2023-08-06T07:59:06.191Z,3.45
2023-08-06T07:59:48.684Z,4.72
2023-08-06T08:00:32.103Z,5.88
2023-08-06T08:01:14.714Z,4.13
2023-08-06T08:01:57.178Z,3.72
2023-08-06T08:02:40.657Z,3.40
2023-08-06T08:03:23.221Z,5.25
2023-08-06T08:04:06.264Z,4.18
2023-08-06T08:04:49.841Z,5.43
2023-08-06T08:05:32.509Z,4.65
2023-08-06T08:06:15.056Z,3.58
2023-08-06T08:06:58.517Z,3.92
2023-08-06T08:07:40.958Z,4.07
2023-08-06T08:08:24.783Z,5.85
2023-08-06T08:09:09.000Z,4.65
2023-08-06T08:09:51.453Z,3.25
2023-08-06T08:10:33.989Z,3.55
2023-08-06T08:11:17.505Z,4.55
2023-08-06T08:12:02.163Z,3.97
2023-08-06T08:12:44.652Z,4.25
2023-08-06T08:13:28.094Z,5.22
2023-08-06T08:14:11.358Z,4.88
2023-08-06T08:14:53.926Z,3.30
2023-08-06T08:15:37.650Z,4.50
2023-08-06T08:16:20.112Z,4.85
2023-08-06T08:17:03.410Z,4.30
2023-08-06T08:17:48.706Z,4.15
2023-08-06T08:18:32.623Z,6.03
2023-08-06T08:19:15.115Z,4.15
2023-08-06T08:19:58.553Z,4.63
2023-08-06T08:20:40.993Z,4.63
2023-08-06T08:21:25.291Z,4.93
2023-08-06T08:22:07.824Z,5.28
2023-08-06T08:22:50.274Z,5.40
2023-08-06T08:23:35.068Z,4.53
2023-08-06T08:24:20.958Z,5.72
2023-08-06T08:25:04.127Z,5.05
2023-08-06T08:25:47.557Z,4.60
2023-08-06T08:26:29.963Z,4.72
2023-08-06T08:27:12.379Z,4.80
2023-08-06T08:27:56.048Z,4.50
2023-08-06T08:28:38.483Z,5.10
2023-08-06T08:29:23.608Z,4.40
2023-08-06T08:30:07.247Z,4.72
2023-08-06T08:30:49.756Z,6.78
2023-08-06T08:31:40.020Z,6.05
2023-08-06T08:32:22.494Z,5.00
2023-08-06T08:33:05.981Z,5.00
2023-08-06T08:33:48.416Z,5.57
2023-08-06T08:34:31.690Z,4.55
2023-08-06T08:35:16.987Z,5.70
2023-08-06T08:35:59.424Z,4.95
2023-08-06T08:36:41.873Z,6.32
2023-08-06T08:37:25.951Z,5.97
2023-08-06T08:38:08.584Z,6.38
2023-08-06T08:38:54.901Z,6.45
2023-08-06T08:39:38.460Z,6.00
2023-08-06T08:40:21.285Z,4.93
2023-08-06T08:41:04.785Z,7.32
2023-08-06T08:41:47.264Z,4.82
2023-08-06T08:42:29.726Z,7.80
2023-08-06T08:43:14.573Z,5.10
2023-08-06T08:43:57.800Z,7.18
2023-08-06T08:44:41.335Z,4.93
2023-08-06T08:45:25.365Z,5.53
2023-08-06T08:46:08.494Z,7.05
2023-08-06T08:46:51.062Z,6.03
2023-08-06T08:47:34.640Z,6.10
2023-08-06T08:48:17.920Z,5.82
2023-08-06T08:49:01.075Z,5.78
2023-08-06T08:49:45.612Z,5.97
2023-08-06T08:50:28.019Z,6.80
2023-08-06T08:51:10.770Z,6.50
2023-08-06T08:51:56.173Z,5.28
2023-08-06T08:52:40.323Z,6.15
2023-08-06T08:53:23.451Z,5.18
2023-08-06T08:54:10.351Z,5.72
2023-08-06T08:54:54.329Z,5.18
2023-08-06T08:55:36.820Z,5.18
2023-08-06T08:56:20.261Z,5.65
2023-08-06T08:57:03.274Z,11.57
2023-08-06T08:57:45.777Z,6.22
2023-08-06T08:58:29.186Z,6.13
2023-08-06T08:59:12.179Z,6.63
2023-08-06T08:59:55.463Z,6.20
2023-08-06T09:00:39.062Z,4.35
2023-08-06T09:01:23.141Z,4.43
2023-08-06T09:02:06.319Z,6.72
2023-08-06T09:02:49.945Z,5.20
2023-08-06T09:03:33.268Z,5.88
2023-08-06T09:04:15.850Z,6.20
2023-08-06T09:05:07.764Z,6.97
2023-08-06T09:05:53.446Z,6.55
2023-08-06T09:06:38.344Z,5.88
2023-08-06T09:07:22.396Z,4.75
2023-08-06T09:08:05.558Z,4.70
2023-08-06T09:08:55.582Z,7.00
2023-08-06T09:09:44.451Z,6.55
2023-08-06T09:10:29.790Z,5.70
2023-08-06T09:11:13.186Z,5.63
2023-08-06T09:12:01.878Z,6.07
2023-08-06T09:12:46.170Z,4.50
2023-08-06T09:13:28.623Z,5.43
2023-08-06T09:14:11.744Z,5.30
2023-08-06T09:14:55.172Z,6.05
2023-08-06T09:15:37.901Z,6.53
2023-08-06T09:16:21.397Z,5.47
2023-08-06T09:17:05.619Z,5.50
2023-08-06T09:17:49.257Z,5.05
2023-08-06T09:18:32.335Z,5.93
2023-08-06T09:19:16.610Z,5.95
2023-08-06T09:20:00.390Z,6.45
2023-08-06T09:20:42.956Z,5.60
2023-08-06T09:21:25.377Z,6.45
2023-08-06T09:22:14.138Z,5.97
2023-08-06T09:22:56.556Z,5.57
2023-08-06T09:23:39.036Z,5.82
2023-08-06T09:24:23.118Z,4.90
2023-08-06T09:25:10.976Z,4.82
2023-08-06T09:25:53.482Z,7.35
2023-08-06T09:26:36.948Z,5.50
2023-08-06T09:27:19.508Z,5.03
2023-08-06T09:28:02.965Z,7.40
2023-08-06T09:28:45.415Z,5.05
2023-08-06T09:29:33.684Z,4.75
2023-08-06T09:30:31.894Z,5.22
2023-08-06T09:31:15.316Z,5.25
2023-08-06T09:31:58.511Z,5.18
2023-08-06T09:32:48.690Z,6.88
2023-08-06T09:33:31.278Z,5.15
2023-08-06T09:34:15.994Z,6.40
2023-08-06T09:35:00.149Z,6.22
2023-08-06T09:35:42.629Z,7.20
2023-08-06T09:36:25.050Z,5.95
2023-08-06T09:37:09.426Z,6.93
2023-08-06T09:37:51.907Z,6.85
2023-08-06T09:38:40.205Z,6.25